createdAt,value
2022-10-18T00:02:04.464Z,102231.41
2022-10-18T00:04:31.087Z,102233.25
2022-10-18T00:06:57.488Z,102226.09
2022-10-18T00:09:23.933Z,102235.91
2022-10-18T00:11:50.352Z,102230.56
2022-10-18T00:14:16.775Z,102234.16
2022-10-18T00:16:43.151Z,102235.03
2022-10-18T00:19:09.544Z,102238.63
2022-10-18T00:21:35.967Z,102240.47
2022-10-18T00:24:02.498Z,102243.22
2022-10-18T00:26:29.323Z,102234.28
2022-10-18T00:29:00.370Z,102238.72
2022-10-18T00:31:31.460Z,102238.78
2022-10-18T00:34:05.416Z,102240.63
2022-10-18T00:36:32.842Z,102251.44
2022-10-18T00:38:59.222Z,102253.34
2022-10-18T00:41:27.187Z,102254.28
2022-10-18T00:44:00.513Z,102261.47
2022-10-18T00:46:28.972Z,102263.28
2022-10-18T00:48:56.282Z,102271.34
2022-10-18T00:51:22.698Z,102262.50
2022-10-18T00:53:49.261Z,102262.50
2022-10-18T00:56:15.655Z,102268.78
2022-10-18T00:58:42.059Z,102266.97
2022-10-18T01:01:08.551Z,102266.94
2022-10-18T01:03:34.992Z,102252.66
2022-10-18T01:06:01.370Z,102252.56
2022-10-18T01:08:27.617Z,102257.00
2022-10-18T01:11:23.473Z,102247.09
2022-10-18T01:14:20.787Z,102253.41
2022-10-18T01:16:59.512Z,102255.28
2022-10-18T01:19:47.844Z,102259.72
2022-10-18T01:22:45.488Z,102254.38
2022-10-18T01:25:33.909Z,102256.16
2022-10-18T01:28:12.438Z,102263.41
2022-10-18T01:30:46.244Z,102255.47
2022-10-18T01:33:25.970Z,102264.31
2022-10-18T01:35:57.304Z,102258.97
2022-10-18T01:38:23.704Z,102257.97
2022-10-18T01:40:50.303Z,102264.19
2022-10-18T01:43:16.763Z,102265.94
2022-10-18T01:45:43.156Z,102265.91
2022-10-18T01:48:10.444Z,102269.44
2022-10-18T01:50:36.839Z,102272.88
2022-10-18T01:53:03.215Z,102276.41
2022-10-18T01:55:39.793Z,102282.59
2022-10-18T01:58:09.529Z,102286.09
2022-10-18T02:00:42.972Z,102292.31
2022-10-18T02:03:35.653Z,102282.44
2022-10-18T02:06:10.349Z,102281.59
2022-10-18T02:08:46.698Z,102278.00
2022-10-18T02:11:13.651Z,102284.28
2022-10-18T02:13:48.588Z,102279.84
2022-10-18T02:16:35.469Z,102286.00
2022-10-18T02:19:06.039Z,102271.84
2022-10-18T02:21:32.433Z,102273.69
2022-10-18T02:23:58.898Z,102261.19
2022-10-18T02:26:25.296Z,102265.69
2022-10-18T02:28:51.682Z,102261.19
2022-10-18T02:31:30.681Z,102251.41
2022-10-18T02:34:06.984Z,102258.56
2022-10-18T02:36:33.864Z,102256.72
2022-10-18T02:39:05.749Z,102262.13
2022-10-18T02:41:32.128Z,102258.59
2022-10-18T02:43:58.568Z,102256.00
2022-10-18T02:46:24.969Z,102263.97
2022-10-18T02:48:51.410Z,102255.94
2022-10-18T02:51:17.835Z,102263.97
2022-10-18T02:53:44.199Z,102268.53
2022-10-18T02:56:10.570Z,102263.19
2022-10-18T02:58:37.080Z,102267.59
2022-10-18T03:01:03.464Z,102270.28
2022-10-18T03:03:29.854Z,102266.66
2022-10-18T03:05:56.218Z,102260.53
2022-10-18T03:08:22.626Z,102255.19
2022-10-18T03:10:49.044Z,102250.72
2022-10-18T03:13:15.448Z,102252.56
2022-10-18T03:15:41.844Z,102241.94
2022-10-18T03:18:08.237Z,102245.56
2022-10-18T03:20:34.624Z,102245.63
2022-10-18T03:23:01.024Z,102252.88
2022-10-18T03:25:27.417Z,102240.34
2022-10-18T03:27:53.839Z,102234.19
2022-10-18T03:30:20.257Z,102235.09
2022-10-18T03:32:46.774Z,102233.41
2022-10-18T03:35:13.188Z,102237.97
2022-10-18T03:37:39.645Z,102238.91
2022-10-18T03:40:06.794Z,102245.16
2022-10-18T03:42:33.618Z,102254.09
2022-10-18T03:45:00.261Z,102247.84
2022-10-18T03:47:26.699Z,102251.53
2022-10-18T03:49:56.235Z,102236.38
2022-10-18T03:52:23.724Z,102239.97
2022-10-18T03:54:50.103Z,102229.25
2022-10-18T03:57:16.496Z,102231.03
2022-10-18T03:59:42.889Z,102233.66
2022-10-18T04:02:09.261Z,102232.78
2022-10-18T04:04:35.657Z,102236.28
2022-10-18T04:07:02.039Z,102240.81
2022-10-18T04:09:28.420Z,102238.06
2022-10-18T04:11:54.819Z,102239.84
2022-10-18T04:14:21.198Z,102232.69
2022-10-18T04:16:47.707Z,102234.44
2022-10-18T04:19:14.261Z,102234.41
2022-10-18T04:21:40.651Z,102233.50
2022-10-18T04:24:07.110Z,102234.41
2022-10-18T04:26:33.496Z,102237.97
2022-10-18T04:29:00.023Z,102228.13
2022-10-18T04:31:26.585Z,102222.72
2022-10-18T04:33:53.093Z,102224.50
2022-10-18T04:36:19.505Z,102225.41
2022-10-18T04:38:45.937Z,102223.63
2022-10-18T04:41:12.316Z,102218.25
2022-10-18T04:43:38.781Z,102228.09
2022-10-18T04:46:05.220Z,102228.09
2022-10-18T04:48:31.719Z,102233.41
2022-10-18T04:50:58.101Z,102227.97
2022-10-18T04:53:24.506Z,102228.88
2022-10-18T04:55:50.899Z,102231.56
2022-10-18T04:58:17.716Z,102235.16
2022-10-18T05:00:44.111Z,102238.72
2022-10-18T05:03:11.113Z,102233.41
2022-10-18T05:05:49.949Z,102238.81
2022-10-18T05:08:23.847Z,102235.28
2022-10-18T05:10:50.227Z,102238.06
2022-10-18T05:13:16.630Z,102229.09
2022-10-18T05:15:43.021Z,102231.91
2022-10-18T05:18:09.401Z,102226.44
2022-10-18T05:20:35.809Z,102222.06
2022-10-18T05:23:02.184Z,102222.94
2022-10-18T05:25:28.587Z,102217.59
2022-10-18T05:27:54.950Z,102220.19
2022-10-18T05:30:21.348Z,102222.94
2022-10-18T05:32:47.716Z,102221.16
2022-10-18T05:35:14.180Z,102233.59
2022-10-18T05:37:40.650Z,102223.78
2022-10-18T05:40:07.727Z,102230.00
2022-10-18T05:42:34.313Z,102239.91
2022-10-18T05:45:00.890Z,102237.25
2022-10-18T05:47:27.304Z,102233.66
2022-10-18T05:49:53.753Z,102228.25
2022-10-18T05:52:20.170Z,102232.66
2022-10-18T05:54:46.567Z,102235.31
2022-10-18T05:57:12.952Z,102240.72
2022-10-18T05:59:39.397Z,102250.66
2022-10-18T06:02:05.806Z,102246.25
2022-10-18T06:04:32.213Z,102254.31
2022-10-18T06:06:58.612Z,102251.66
2022-10-18T06:09:24.985Z,102260.59
2022-10-18T06:11:51.383Z,102251.63
2022-10-18T06:14:17.759Z,102249.84
2022-10-18T06:16:44.162Z,102257.00
2022-10-18T06:19:10.706Z,102262.44
2022-10-18T06:21:37.109Z,102254.34
2022-10-18T06:24:03.780Z,102259.75
2022-10-18T06:26:30.374Z,102249.88
2022-10-18T06:28:56.854Z,102250.75
2022-10-18T06:31:24.453Z,102254.41
2022-10-18T06:33:50.848Z,102250.00
2022-10-18T06:36:18.411Z,102260.75
2022-10-18T06:38:44.897Z,102261.75
2022-10-18T06:41:11.301Z,102256.41
2022-10-18T06:43:37.986Z,102258.13
2022-10-18T06:46:05.208Z,102255.38
2022-10-18T06:48:31.622Z,102260.75
2022-10-18T06:50:59.213Z,102258.94
2022-10-18T06:53:25.964Z,102266.06
2022-10-18T06:55:52.552Z,102272.34
2022-10-18T06:58:19.171Z,102282.13
2022-10-18T07:00:45.572Z,102283.91
2022-10-18T07:03:12.014Z,102286.59
2022-10-18T07:05:38.392Z,102290.16
2022-10-18T07:08:04.852Z,102298.97
2022-10-18T07:10:31.250Z,102299.00
2022-10-18T07:13:13.572Z,102306.16
2022-10-18T07:15:44.087Z,102306.16
2022-10-18T07:18:10.734Z,102308.88
2022-10-18T07:20:37.122Z,102311.53
2022-10-18T07:23:05.660Z,102310.63
2022-10-18T07:25:32.110Z,102316.88
2022-10-18T07:27:58.598Z,102308.81
2022-10-18T07:30:25.080Z,102315.06
2022-10-18T07:32:51.888Z,102315.97
2022-10-18T07:35:18.299Z,102322.22
2022-10-18T07:37:44.709Z,102315.09
2022-10-18T07:40:11.536Z,102315.06
2022-10-18T07:42:38.166Z,102320.41
2022-10-18T07:45:04.757Z,102329.31
2022-10-18T07:47:34.259Z,102330.25
2022-10-18T07:50:01.752Z,102340.09
2022-10-18T07:52:28.145Z,102336.56
2022-10-18T07:54:54.540Z,102334.75
2022-10-18T07:57:22.093Z,102336.50
2022-10-18T07:59:48.540Z,102332.94
2022-10-18T08:02:14.937Z,102340.13
2022-10-18T08:04:41.328Z,102333.88
2022-10-18T08:07:07.757Z,102330.25
2022-10-18T08:09:34.170Z,102335.63
2022-10-18T08:12:00.596Z,102328.44
2022-10-18T08:14:27.070Z,102323.06
2022-10-18T08:16:53.472Z,102326.63
2022-10-18T08:19:19.910Z,102320.38
2022-10-18T08:21:46.341Z,102322.06
2022-10-18T08:24:12.786Z,102331.72
2022-10-18T08:26:39.402Z,102329.84
2022-10-18T08:31:52.244Z,102323.44
2022-10-18T08:37:03.302Z,102321.63
2022-10-18T08:39:29.779Z,102319.88
2022-10-18T08:42:14.790Z,102314.66
2022-10-18T08:44:48.044Z,102316.59
2022-10-18T08:47:49.929Z,102327.31
2022-10-18T08:50:21.298Z,102316.66
2022-10-18T08:53:00.536Z,102328.31
2022-10-18T08:55:36.634Z,102332.78
2022-10-18T08:58:14.445Z,102336.50
2022-10-18T09:00:40.868Z,102331.28
2022-10-18T09:03:35.504Z,102337.59
2022-10-18T09:06:12.709Z,102338.50
2022-10-18T09:08:52.758Z,102343.72
2022-10-18T09:11:42.092Z,102342.72
2022-10-18T09:14:14.282Z,102343.28
2022-10-18T09:16:45.496Z,102341.13
2022-10-18T09:19:20.740Z,102347.38
2022-10-18T09:21:58.242Z,102345.78
2022-10-18T09:24:49.808Z,102348.59
2022-10-18T09:27:18.061Z,102348.78
2022-10-18T09:30:18.489Z,102350.78
2022-10-18T09:33:15.317Z,102345.47
2022-10-18T09:35:54.557Z,102350.63
2022-10-18T09:38:22.510Z,102355.75
2022-10-18T09:40:53.233Z,102350.06
2022-10-18T09:43:22.959Z,102359.75
2022-10-18T09:45:49.534Z,102360.47
2022-10-18T09:48:20.464Z,102341.91
2022-10-18T09:50:52.781Z,102345.59
2022-10-18T09:53:27.351Z,102346.50
2022-10-18T09:56:09.303Z,102349.13
2022-10-18T09:58:46.232Z,102352.66
2022-10-18T10:01:17.924Z,102351.63
2022-10-18T10:03:44.332Z,102348.59
2022-10-18T10:06:13.590Z,102344.00
2022-10-18T10:08:53.677Z,102349.69
2022-10-18T10:11:36.728Z,102341.78
2022-10-18T10:14:12.373Z,102337.28
2022-10-18T10:17:04.016Z,102346.25
2022-10-18T10:19:34.756Z,102329.22
2022-10-18T10:22:05.033Z,102332.56
2022-10-18T10:24:35.749Z,102341.47
2022-10-18T10:27:04.590Z,102332.56
2022-10-18T10:30:06.539Z,102342.22
2022-10-18T10:32:45.293Z,102343.94
2022-10-18T10:35:56.578Z,102345.63
2022-10-18T10:38:24.382Z,102341.19
2022-10-18T10:40:50.833Z,102350.13
2022-10-18T10:43:36.553Z,102348.16
2022-10-18T10:46:09.884Z,102354.25
2022-10-18T10:48:45.283Z,102347.25
2022-10-18T10:51:11.804Z,102343.59
2022-10-18T10:53:40.807Z,102354.28
2022-10-18T10:56:15.950Z,102352.34
2022-10-18T10:58:42.515Z,102359.34
2022-10-18T11:01:30.065Z,102353.50
2022-10-18T11:03:58.574Z,102365.94
2022-10-18T11:06:28.065Z,102368.38
2022-10-18T11:08:54.497Z,102356.53
2022-10-18T11:11:23.473Z,102379.75
2022-10-18T11:14:25.286Z,102370.94
2022-10-18T11:17:07.886Z,102375.66
2022-10-18T11:19:55.591Z,102376.75
2022-10-18T11:22:22.119Z,102377.94
2022-10-18T11:24:48.579Z,102374.56
2022-10-18T11:27:23.868Z,102377.91
2022-10-18T11:30:13.120Z,102377.69
2022-10-18T11:32:39.519Z,102388.38
2022-10-18T11:35:25.026Z,102375.34
2022-10-18T11:38:09.978Z,102375.63
2022-10-18T11:40:44.478Z,102358.88
2022-10-18T11:44:00.636Z,102366.50
2022-10-18T11:46:42.541Z,102360.59
2022-10-18T11:49:16.055Z,102366.22
2022-10-18T11:52:09.276Z,102362.25
2022-10-18T11:54:54.389Z,102360.28
2022-10-18T11:57:47.075Z,102360.88
2022-10-18T12:00:33.508Z,102360.41
2022-10-18T12:03:18.855Z,102365.28
2022-10-18T12:05:45.801Z,102364.06
2022-10-18T12:08:17.349Z,102360.94
2022-10-18T12:11:04.002Z,102364.72
2022-10-18T12:13:38.706Z,102356.44
2022-10-18T12:16:05.478Z,102350.56
2022-10-18T12:18:31.895Z,102348.03
2022-10-18T12:20:58.394Z,102338.06
2022-10-18T12:23:24.738Z,102345.34
2022-10-18T12:25:52.864Z,102350.06
2022-10-18T12:28:40.420Z,102353.44
2022-10-18T12:31:27.924Z,102350.63
2022-10-18T12:33:59.488Z,102348.28
2022-10-18T12:36:50.955Z,102353.03
2022-10-18T12:39:43.603Z,102355.13
2022-10-18T12:42:22.027Z,102355.03
2022-10-18T12:44:48.460Z,102357.59
2022-10-18T12:47:22.460Z,102353.38
2022-10-18T12:50:02.032Z,102359.47
2022-10-18T12:52:29.485Z,102353.84
2022-10-18T12:55:04.790Z,102357.59
2022-10-18T12:57:53.227Z,102350.13
2022-10-18T13:00:31.963Z,102350.59
2022-10-18T13:03:10.458Z,102348.03
2022-10-18T13:06:01.837Z,102349.41
2022-10-18T13:08:31.905Z,102342.53
2022-10-18T13:11:01.321Z,102348.31
2022-10-18T13:13:55.097Z,102346.56
2022-10-18T13:16:45.816Z,102352.03
2022-10-18T13:19:25.655Z,102342.34
2022-10-18T13:22:22.881Z,102346.41
2022-10-18T13:25:18.552Z,102348.34
2022-10-18T13:27:53.037Z,102348.94
2022-10-18T13:30:33.245Z,102351.16
2022-10-18T13:33:25.533Z,102349.34
2022-10-18T13:36:05.629Z,102358.44
2022-10-18T13:38:50.304Z,102353.91
2022-10-18T13:43:57.647Z,102350.13
2022-10-18T13:46:32.812Z,102341.66
2022-10-18T13:49:14.189Z,102336.66
2022-10-18T13:51:59.096Z,102349.75
2022-10-18T13:54:33.614Z,102347.53
2022-10-18T13:57:10.990Z,102349.63
2022-10-18T13:59:54.087Z,102348.41
2022-10-18T14:02:51.055Z,102340.28
2022-10-18T14:05:32.375Z,102340.53
2022-10-18T14:08:05.733Z,102351.03
2022-10-18T14:10:50.469Z,102347.03
2022-10-18T14:13:31.450Z,102342.78
2022-10-18T14:16:03.608Z,102340.78
2022-10-18T14:18:34.324Z,102342.78
2022-10-18T14:21:13.650Z,102336.38
2022-10-18T14:23:42.983Z,102353.19
2022-10-18T14:26:14.835Z,102353.59
2022-10-18T14:28:58.983Z,102354.34
2022-10-18T14:31:25.782Z,102357.44
2022-10-18T14:33:57.337Z,102355.03
2022-10-18T14:36:26.007Z,102358.13
2022-10-18T14:38:53.145Z,102365.78
2022-10-18T14:41:26.694Z,102364.38
2022-10-18T14:43:56.192Z,102360.31
2022-10-18T14:46:28.013Z,102364.28
2022-10-18T14:49:00.508Z,102365.19
2022-10-18T14:51:28.179Z,102369.06
2022-10-18T14:53:54.580Z,102364.94
2022-10-18T14:56:29.126Z,102368.84
2022-10-18T14:58:56.650Z,102371.81
2022-10-18T15:01:25.624Z,102372.06
2022-10-18T15:03:56.012Z,102375.81
2022-10-18T15:06:22.438Z,102375.16
2022-10-18T15:08:51.415Z,102371.69
2022-10-18T15:11:18.195Z,102372.59
2022-10-18T15:13:56.755Z,102375.34
2022-10-18T15:16:25.128Z,102369.97
2022-10-18T15:19:15.728Z,102372.88
2022-10-18T15:22:31.204Z,102372.91
2022-10-18T15:25:17.603Z,102380.13
2022-10-18T15:27:49.128Z,102375.69
2022-10-18T15:30:18.867Z,102373.09
2022-10-18T15:32:48.848Z,102372.09
2022-10-18T15:35:25.905Z,102371.31
2022-10-18T15:37:52.895Z,102367.94
2022-10-18T15:40:22.196Z,102372.44
2022-10-18T15:42:52.979Z,102373.47
2022-10-18T15:45:25.541Z,102368.09
2022-10-18T15:48:07.141Z,102363.84
2022-10-18T15:50:37.944Z,102363.09
2022-10-18T15:53:22.535Z,102364.09
2022-10-18T15:56:10.389Z,102365.00
2022-10-18T15:58:46.459Z,102362.41
2022-10-18T16:01:42.604Z,102354.59
2022-10-18T16:04:17.170Z,102368.09
2022-10-18T16:06:43.543Z,102360.94
2022-10-18T16:09:16.102Z,102356.47
2022-10-18T16:11:42.516Z,102345.88
2022-10-18T16:14:09.044Z,102349.53
2022-10-18T16:16:35.567Z,102359.41
2022-10-18T16:19:02.062Z,102351.41
2022-10-18T16:21:30.469Z,102356.88
2022-10-18T16:23:57.085Z,102357.00
2022-10-18T16:26:24.716Z,102360.69
2022-10-18T16:28:51.496Z,102361.47
2022-10-18T16:31:20.061Z,102366.09
2022-10-18T16:33:46.600Z,102362.66
2022-10-18T16:36:17.102Z,102364.50
2022-10-18T16:38:43.539Z,102358.25
2022-10-18T16:41:10.289Z,102360.19
2022-10-18T16:43:36.752Z,102366.38
2022-10-18T16:46:04.046Z,102372.72
2022-10-18T16:48:30.437Z,102374.63
2022-10-18T16:50:56.923Z,102377.44
2022-10-18T16:53:23.384Z,102384.66
2022-10-18T16:56:14.371Z,102379.41
2022-10-18T16:58:40.822Z,102381.19
2022-10-18T17:01:09.006Z,102384.81
2022-10-18T17:03:35.730Z,102378.53
2022-10-18T17:06:02.125Z,102391.94
2022-10-18T17:08:28.718Z,102395.50
2022-10-18T17:10:57.766Z,102393.69
2022-10-18T17:13:24.255Z,102393.66
2022-10-18T17:15:50.785Z,102397.28
2022-10-18T17:18:19.228Z,102391.06
2022-10-18T17:20:45.709Z,102391.06
2022-10-18T17:23:12.097Z,102395.38
2022-10-18T17:25:46.425Z,102399.88
2022-10-18T17:28:24.146Z,102398.97
2022-10-18T17:30:50.592Z,102400.75
2022-10-18T17:33:16.948Z,102408.00
2022-10-18T17:35:44.303Z,102417.75
2022-10-18T17:38:12.884Z,102404.47
2022-10-18T17:40:40.557Z,102416.91
2022-10-18T17:43:07.089Z,102412.47
2022-10-18T17:45:33.477Z,102405.34
2022-10-18T17:47:59.914Z,102405.34
2022-10-18T17:50:27.778Z,102416.09
2022-10-18T17:52:54.252Z,102425.03
2022-10-18T17:55:20.617Z,102431.28
2022-10-18T17:57:47.024Z,102425.03
2022-10-18T18:00:13.468Z,102437.53
2022-10-18T18:02:41.837Z,102436.47
2022-10-18T18:05:08.958Z,102432.94
2022-10-18T18:07:35.548Z,102445.44
2022-10-18T18:10:02.010Z,102449.88
2022-10-18T18:12:28.469Z,102446.38
2022-10-18T18:14:54.888Z,102456.28
2022-10-18T18:17:28.809Z,102443.78
2022-10-18T18:20:00.691Z,102448.25
2022-10-18T18:22:27.209Z,102439.31
2022-10-18T18:24:53.632Z,102441.94
2022-10-18T18:27:20.039Z,102450.84
2022-10-18T18:29:46.496Z,102449.09
2022-10-18T18:32:13.520Z,102444.66
2022-10-18T18:34:44.151Z,102446.50
2022-10-18T18:37:10.635Z,102447.47
2022-10-18T18:39:37.033Z,102443.06
2022-10-18T18:42:03.472Z,102445.81
2022-10-18T18:44:29.916Z,102444.09
2022-10-18T18:46:56.355Z,102442.34
2022-10-18T18:49:22.802Z,102445.00
2022-10-18T18:51:49.223Z,102441.44
2022-10-18T18:54:15.778Z,102442.34
2022-10-18T18:56:42.261Z,102436.06
2022-10-18T18:59:08.769Z,102438.75
2022-10-18T19:01:36.306Z,102437.00
2022-10-18T19:04:02.996Z,102437.00
2022-10-18T19:06:31.081Z,102455.81
2022-10-18T19:08:57.906Z,102446.97
2022-10-18T19:11:24.361Z,102449.63
2022-10-18T19:13:50.833Z,102445.97
2022-10-18T19:16:20.431Z,102436.13
2022-10-18T19:18:57.260Z,102437.91
2022-10-18T19:21:24.340Z,102446.03
2022-10-18T19:23:50.789Z,102449.63
2022-10-18T19:26:43.461Z,102443.28
2022-10-18T19:29:17.660Z,102444.19
2022-10-18T19:31:44.145Z,102446.81
2022-10-18T19:34:14.582Z,102447.69
2022-10-18T19:36:43.124Z,102444.16
2022-10-18T19:39:15.206Z,102460.25
2022-10-18T19:41:41.722Z,102454.03
2022-10-18T19:44:10.773Z,102458.47
2022-10-18T19:46:37.190Z,102462.94
2022-10-18T19:49:03.697Z,102460.25
2022-10-18T19:51:30.933Z,102447.88
2022-10-18T19:54:00.158Z,102455.94
2022-10-18T19:56:26.934Z,102452.34
2022-10-18T19:58:56.792Z,102464.91
2022-10-18T20:01:23.457Z,102462.22
2022-10-18T20:03:49.977Z,102456.91
2022-10-18T20:06:16.418Z,102464.06
2022-10-18T20:08:43.750Z,102470.31
2022-10-18T20:11:12.132Z,102468.47
2022-10-18T20:13:41.199Z,102472.94
2022-10-18T20:16:08.359Z,102478.28
2022-10-18T20:18:34.876Z,102476.56
2022-10-18T20:21:04.376Z,102481.88
2022-10-18T20:23:30.830Z,102485.44
2022-10-18T20:26:00.424Z,102492.69
2022-10-18T20:28:26.868Z,102488.13
2022-10-18T20:31:05.722Z,102495.19
2022-10-18T20:33:32.257Z,102496.13
2022-10-18T20:36:03.680Z,102498.91
2022-10-18T20:38:34.092Z,102493.63
2022-10-18T20:41:07.951Z,102482.19
2022-10-18T20:43:34.473Z,102483.31
2022-10-18T20:46:01.044Z,102483.47
2022-10-18T20:48:27.517Z,102489.81
2022-10-18T20:50:53.973Z,102487.28
2022-10-18T20:53:20.431Z,102482.84
2022-10-18T20:55:46.832Z,102487.41
2022-10-18T20:58:13.218Z,102484.72
2022-10-18T21:00:39.715Z,102482.13
2022-10-18T21:03:06.153Z,102481.22
2022-10-18T21:05:32.646Z,102475.16
2022-10-18T21:07:59.038Z,102477.84
2022-10-18T21:10:25.537Z,102486.81
2022-10-18T21:12:55.154Z,102488.63
2022-10-18T21:15:21.721Z,102485.03
2022-10-18T21:17:51.207Z,102492.13
2022-10-18T21:20:17.728Z,102493.06
2022-10-18T21:22:45.303Z,102492.13
2022-10-18T21:25:11.729Z,102479.63
2022-10-18T21:27:38.129Z,102482.31
2022-10-18T21:30:04.820Z,102484.00
2022-10-18T21:32:31.611Z,102476.00
2022-10-18T21:34:58.211Z,102478.72
2022-10-18T21:37:24.633Z,102482.28
2022-10-18T21:39:51.023Z,102477.81
2022-10-18T21:42:17.441Z,102481.34
2022-10-18T21:44:43.809Z,102476.00
2022-10-18T21:47:10.216Z,102476.88
2022-10-18T21:49:36.582Z,102479.53
2022-10-18T21:52:02.980Z,102465.28
2022-10-18T21:54:29.417Z,102467.91
2022-10-18T21:56:55.808Z,102474.13
2022-10-18T21:59:22.324Z,102464.31
2022-10-18T22:01:48.768Z,102470.53
2022-10-18T22:04:24.642Z,102467.00
2022-10-18T22:06:51.066Z,102471.47
2022-10-18T22:09:17.594Z,102475.03
2022-10-18T22:11:47.012Z,102485.66
2022-10-18T22:14:13.396Z,102482.94
2022-10-18T22:16:39.795Z,102496.31
2022-10-18T22:19:06.423Z,102485.69
2022-10-18T22:21:32.848Z,102477.84
2022-10-18T22:23:59.524Z,102471.66
2022-10-18T22:26:44.241Z,102465.47
2022-10-18T22:29:17.800Z,102471.81
2022-10-18T22:31:45.974Z,102477.22
2022-10-18T22:34:17.189Z,102473.66
2022-10-18T22:36:43.693Z,102467.47
2022-10-18T22:39:10.062Z,102469.31
2022-10-18T22:41:36.485Z,102467.53
2022-10-18T22:44:03.863Z,102463.09
2022-10-18T22:46:30.693Z,102467.53
2022-10-18T22:48:57.101Z,102467.47
2022-10-18T22:51:23.534Z,102463.97
2022-10-18T22:53:49.987Z,102457.72
2022-10-18T22:56:18.249Z,102457.72
2022-10-18T22:58:44.655Z,102460.34
2022-10-18T23:01:12.822Z,102448.81
2022-10-18T23:03:39.354Z,102449.69
2022-10-18T23:06:06.214Z,102447.03
2022-10-18T23:08:32.610Z,102450.59
2022-10-18T23:10:59.473Z,102453.22
2022-10-18T23:13:26.648Z,102450.53
2022-10-18T23:15:53.141Z,102451.38
2022-10-18T23:18:19.522Z,102458.44
2022-10-18T23:20:45.896Z,102459.34
2022-10-18T23:23:12.647Z,102451.38
2022-10-18T23:25:39.080Z,102450.50
2022-10-18T23:28:05.534Z,102454.06
2022-10-18T23:30:31.919Z,102468.25
2022-10-18T23:32:58.311Z,102462.91
2022-10-18T23:35:24.676Z,102467.38
2022-10-18T23:37:51.389Z,102463.00
2022-10-18T23:40:17.804Z,102463.03
2022-10-18T23:42:44.187Z,102462.22
2022-10-18T23:45:10.673Z,102476.56
2022-10-18T23:47:37.030Z,102468.63
2022-10-18T23:50:03.833Z,102465.06
2022-10-18T23:52:30.236Z,102465.94
2022-10-18T23:54:56.645Z,102458.81
2022-10-18T23:57:23.043Z,102456.97
2022-10-18T23:59:49.502Z,102461.41
